sensor_id;sensor_type;location;lat;lon;timestamp;P1;durP1;ratioP1;P2;durP2;ratioP2
7657;SDS011;8462;53.156;8.220;2024-02-21T00:01:53;25.50;;;16.63;;
7657;SDS011;8462;53.156;8.220;2024-02-21T00:04:23;28.23;;;18.10;;
7657;SDS011;8462;53.156;8.220;2024-02-21T00:06:53;24.63;;;17.53;;
7657;SDS011;8462;53.156;8.220;2024-02-21T00:09:21;26.47;;;17.87;;
7657;SDS011;8462;53.156;8.220;2024-02-21T00:11:49;28.40;;;18.93;;
7657;SDS011;8462;53.156;8.220;2024-02-21T00:14:18;29.90;;;19.17;;
7657;SDS011;8462;53.156;8.220;2024-02-21T00:16:46;33.67;;;20.40;;
7657;SDS011;8462;53.156;8.220;2024-02-21T00:19:13;32.67;;;18.93;;
7657;SDS011;8462;53.156;8.220;2024-02-21T00:21:45;31.13;;;19.87;;
7657;SDS011;8462;53.156;8.220;2024-02-21T00:24:15;32.13;;;20.63;;
7657;SDS011;8462;53.156;8.220;2024-02-21T00:26:43;29.07;;;19.10;;
7657;SDS011;8462;53.156;8.220;2024-02-21T00:29:12;34.33;;;22.13;;
7657;SDS011;8462;53.156;8.220;2024-02-21T00:31:41;34.27;;;21.40;;
7657;SDS011;8462;53.156;8.220;2024-02-21T00:34:11;32.90;;;19.73;;
7657;SDS011;8462;53.156;8.220;2024-02-21T00:36:39;29.43;;;19.93;;
7657;SDS011;8462;53.156;8.220;2024-02-21T00:39:09;35.67;;;20.00;;
7657;SDS011;8462;53.156;8.220;2024-02-21T00:41:38;30.87;;;19.37;;
7657;SDS011;8462;53.156;8.220;2024-02-21T00:44:06;34.83;;;19.77;;
7657;SDS011;8462;53.156;8.220;2024-02-21T00:46:35;29.47;;;19.53;;
7657;SDS011;8462;53.156;8.220;2024-02-21T00:49:05;27.80;;;18.77;;
7657;SDS011;8462;53.156;8.220;2024-02-21T00:51:33;29.43;;;18.63;;
7657;SDS011;8462;53.156;8.220;2024-02-21T00:54:02;31.87;;;19.13;;
7657;SDS011;8462;53.156;8.220;2024-02-21T00:56:32;29.33;;;17.73;;
7657;SDS011;8462;53.156;8.220;2024-02-21T00:59:02;27.20;;;16.73;;
7657;SDS011;8462;53.156;8.220;2024-02-21T01:01:30;27.67;;;17.53;;
7657;SDS011;8462;53.156;8.220;2024-02-21T01:03:58;26.67;;;17.97;;
7657;SDS011;8462;53.156;8.220;2024-02-21T01:06:26;28.73;;;18.10;;
7657;SDS011;8462;53.156;8.220;2024-02-21T01:08:55;28.70;;;16.77;;
7657;SDS011;8462;53.156;8.220;2024-02-21T01:11:23;25.73;;;16.53;;
7657;SDS011;8462;53.156;8.220;2024-02-21T01:13:54;26.67;;;16.47;;
7657;SDS011;8462;53.156;8.220;2024-02-21T01:16:22;25.67;;;16.90;;
7657;SDS011;8462;53.156;8.220;2024-02-21T01:18:50;23.07;;;16.50;;
7657;SDS011;8462;53.156;8.220;2024-02-21T01:21:18;22.57;;;15.87;;
7657;SDS011;8462;53.156;8.220;2024-02-21T01:23:47;26.63;;;15.63;;
7657;SDS011;8462;53.156;8.220;2024-02-21T01:26:14;23.63;;;15.23;;
7657;SDS011;8462;53.156;8.220;2024-02-21T01:28:44;24.83;;;16.70;;
7657;SDS011;8462;53.156;8.220;2024-02-21T01:31:15;23.63;;;16.20;;
7657;SDS011;8462;53.156;8.220;2024-02-21T01:33:48;26.50;;;15.63;;
7657;SDS011;8462;53.156;8.220;2024-02-21T01:36:17;24.13;;;15.87;;
7657;SDS011;8462;53.156;8.220;2024-02-21T01:38:44;27.93;;;15.87;;
7657;SDS011;8462;53.156;8.220;2024-02-21T01:41:12;24.37;;;15.67;;
7657;SDS011;8462;53.156;8.220;2024-02-21T01:43:39;27.90;;;15.47;;
7657;SDS011;8462;53.156;8.220;2024-02-21T01:46:06;26.83;;;15.30;;
7657;SDS011;8462;53.156;8.220;2024-02-21T01:48:36;27.13;;;16.67;;
7657;SDS011;8462;53.156;8.220;2024-02-21T01:51:06;30.00;;;16.47;;
7657;SDS011;8462;53.156;8.220;2024-02-21T01:53:35;25.27;;;15.73;;
7657;SDS011;8462;53.156;8.220;2024-02-21T01:56:09;22.27;;;15.27;;
7657;SDS011;8462;53.156;8.220;2024-02-21T01:58:39;25.00;;;15.50;;
7657;SDS011;8462;53.156;8.220;2024-02-21T02:01:09;24.43;;;14.80;;
7657;SDS011;8462;53.156;8.220;2024-02-21T02:03:39;25.03;;;15.43;;
7657;SDS011;8462;53.156;8.220;2024-02-21T02:06:08;27.27;;;15.60;;
7657;SDS011;8462;53.156;8.220;2024-02-21T02:08:36;23.00;;;13.57;;
7657;SDS011;8462;53.156;8.220;2024-02-21T02:11:05;27.27;;;15.53;;
7657;SDS011;8462;53.156;8.220;2024-02-21T02:13:34;24.53;;;15.33;;
7657;SDS011;8462;53.156;8.220;2024-02-21T02:16:02;22.97;;;13.37;;
7657;SDS011;8462;53.156;8.220;2024-02-21T02:18:31;23.67;;;14.90;;
7657;SDS011;8462;53.156;8.220;2024-02-21T02:20:59;21.93;;;13.33;;
7657;SDS011;8462;53.156;8.220;2024-02-21T02:23:32;24.33;;;14.03;;
7657;SDS011;8462;53.156;8.220;2024-02-21T02:26:01;24.93;;;15.47;;
7657;SDS011;8462;53.156;8.220;2024-02-21T02:28:31;26.23;;;14.17;;
7657;SDS011;8462;53.156;8.220;2024-02-21T02:30:59;23.17;;;13.63;;
7657;SDS011;8462;53.156;8.220;2024-02-21T02:33:26;24.33;;;14.70;;
7657;SDS011;8462;53.156;8.220;2024-02-21T02:35:53;25.03;;;14.00;;
7657;SDS011;8462;53.156;8.220;2024-02-21T02:38:22;26.47;;;14.73;;
7657;SDS011;8462;53.156;8.220;2024-02-21T02:40:50;20.07;;;13.30;;
7657;SDS011;8462;53.156;8.220;2024-02-21T02:43:19;26.50;;;14.20;;
7657;SDS011;8462;53.156;8.220;2024-02-21T02:45:47;22.67;;;13.17;;
7657;SDS011;8462;53.156;8.220;2024-02-21T02:48:14;32.07;;;14.17;;
7657;SDS011;8462;53.156;8.220;2024-02-21T02:50:42;23.00;;;14.10;;
7657;SDS011;8462;53.156;8.220;2024-02-21T02:53:17;28.97;;;13.93;;
7657;SDS011;8462;53.156;8.220;2024-02-21T02:55:45;22.93;;;14.33;;
7657;SDS011;8462;53.156;8.220;2024-02-21T02:58:21;28.63;;;14.73;;
7657;SDS011;8462;53.156;8.220;2024-02-21T03:00:51;24.20;;;14.30;;
7657;SDS011;8462;53.156;8.220;2024-02-21T03:03:18;25.83;;;14.53;;
7657;SDS011;8462;53.156;8.220;2024-02-21T03:05:46;27.07;;;15.73;;
7657;SDS011;8462;53.156;8.220;2024-02-21T03:08:15;26.90;;;15.83;;
7657;SDS011;8462;53.156;8.220;2024-02-21T03:10:44;22.97;;;15.83;;
7657;SDS011;8462;53.156;8.220;2024-02-21T03:13:16;25.23;;;15.33;;
7657;SDS011;8462;53.156;8.220;2024-02-21T03:15:46;28.10;;;15.97;;
7657;SDS011;8462;53.156;8.220;2024-02-21T03:18:15;27.20;;;15.90;;
7657;SDS011;8462;53.156;8.220;2024-02-21T03:20:42;28.20;;;16.10;;
7657;SDS011;8462;53.156;8.220;2024-02-21T03:23:12;28.77;;;16.17;;
7657;SDS011;8462;53.156;8.220;2024-02-21T03:25:40;29.47;;;16.87;;
7657;SDS011;8462;53.156;8.220;2024-02-21T03:28:09;31.17;;;16.77;;
7657;SDS011;8462;53.156;8.220;2024-02-21T03:30:37;33.03;;;17.87;;
7657;SDS011;8462;53.156;8.220;2024-02-21T03:33:05;37.73;;;18.13;;
7657;SDS011;8462;53.156;8.220;2024-02-21T03:35:34;33.00;;;18.10;;
7657;SDS011;8462;53.156;8.220;2024-02-21T03:38:03;36.13;;;18.60;;
7657;SDS011;8462;53.156;8.220;2024-02-21T03:40:31;28.97;;;17.60;;
7657;SDS011;8462;53.156;8.220;2024-02-21T03:42:58;29.63;;;17.83;;
7657;SDS011;8462;53.156;8.220;2024-02-21T03:45:26;33.33;;;18.20;;
7657;SDS011;8462;53.156;8.220;2024-02-21T03:47:55;30.67;;;17.27;;
7657;SDS011;8462;53.156;8.220;2024-02-21T03:50:30;31.90;;;18.80;;
7657;SDS011;8462;53.156;8.220;2024-02-21T03:52:59;30.23;;;16.13;;
7657;SDS011;8462;53.156;8.220;2024-02-21T03:55:26;30.47;;;17.67;;
7657;SDS011;8462;53.156;8.220;2024-02-21T03:57:55;34.43;;;17.87;;
7657;SDS011;8462;53.156;8.220;2024-02-21T04:00:23;31.47;;;17.13;;
7657;SDS011;8462;53.156;8.220;2024-02-21T04:02:51;34.83;;;18.43;;
7657;SDS011;8462;53.156;8.220;2024-02-21T04:05:22;25.83;;;15.87;;
7657;SDS011;8462;53.156;8.220;2024-02-21T04:07:50;31.63;;;16.77;;
7657;SDS011;8462;53.156;8.220;2024-02-21T04:10:18;26.20;;;16.57;;
7657;SDS011;8462;53.156;8.220;2024-02-21T04:12:47;31.23;;;16.67;;
7657;SDS011;8462;53.156;8.220;2024-02-21T04:15:16;26.43;;;15.97;;
7657;SDS011;8462;53.156;8.220;2024-02-21T04:17:43;30.50;;;14.93;;
7657;SDS011;8462;53.156;8.220;2024-02-21T04:20:14;25.20;;;14.50;;
7657;SDS011;8462;53.156;8.220;2024-02-21T04:22:45;26.33;;;15.30;;
7657;SDS011;8462;53.156;8.220;2024-02-21T04:25:17;28.27;;;15.70;;
7657;SDS011;8462;53.156;8.220;2024-02-21T04:27:46;24.77;;;14.73;;
7657;SDS011;8462;53.156;8.220;2024-02-21T04:30:14;24.23;;;15.77;;
7657;SDS011;8462;53.156;8.220;2024-02-21T04:32:46;23.77;;;14.03;;
7657;SDS011;8462;53.156;8.220;2024-02-21T04:35:14;23.77;;;14.00;;
7657;SDS011;8462;53.156;8.220;2024-02-21T04:37:43;25.30;;;14.73;;
7657;SDS011;8462;53.156;8.220;2024-02-21T04:40:11;19.80;;;12.63;;
7657;SDS011;8462;53.156;8.220;2024-02-21T04:42:41;19.13;;;13.70;;
7657;SDS011;8462;53.156;8.220;2024-02-21T04:45:11;26.37;;;14.17;;
7657;SDS011;8462;53.156;8.220;2024-02-21T04:47:38;23.03;;;13.53;;
7657;SDS011;8462;53.156;8.220;2024-02-21T04:50:05;21.50;;;13.30;;
7657;SDS011;8462;53.156;8.220;2024-02-21T04:52:35;21.97;;;13.37;;
7657;SDS011;8462;53.156;8.220;2024-02-21T04:55:05;25.50;;;13.07;;
7657;SDS011;8462;53.156;8.220;2024-02-21T04:57:34;21.27;;;11.93;;
7657;SDS011;8462;53.156;8.220;2024-02-21T05:00:06;21.63;;;12.43;;
7657;SDS011;8462;53.156;8.220;2024-02-21T05:02:35;18.50;;;12.10;;
7657;SDS011;8462;53.156;8.220;2024-02-21T05:05:03;18.47;;;11.93;;
7657;SDS011;8462;53.156;8.220;2024-02-21T05:07:30;18.87;;;12.33;;
7657;SDS011;8462;53.156;8.220;2024-02-21T05:09:59;20.97;;;11.67;;
7657;SDS011;8462;53.156;8.220;2024-02-21T05:12:29;18.33;;;11.63;;
7657;SDS011;8462;53.156;8.220;2024-02-21T05:14:56;17.23;;;11.10;;
7657;SDS011;8462;53.156;8.220;2024-02-21T05:17:26;15.80;;;10.37;;
7657;SDS011;8462;53.156;8.220;2024-02-21T05:19:54;15.87;;;10.70;;
7657;SDS011;8462;53.156;8.220;2024-02-21T05:22:22;17.50;;;10.77;;
7657;SDS011;8462;53.156;8.220;2024-02-21T05:24:50;17.63;;;11.57;;
7657;SDS011;8462;53.156;8.220;2024-02-21T05:27:18;14.63;;;10.60;;
7657;SDS011;8462;53.156;8.220;2024-02-21T05:29:47;17.53;;;11.37;;
7657;SDS011;8462;53.156;8.220;2024-02-21T05:32:16;16.33;;;11.07;;
7657;SDS011;8462;53.156;8.220;2024-02-21T05:34:49;15.57;;;9.83;;
7657;SDS011;8462;53.156;8.220;2024-02-21T05:37:19;15.73;;;10.07;;
7657;SDS011;8462;53.156;8.220;2024-02-21T05:39:49;16.73;;;10.33;;
7657;SDS011;8462;53.156;8.220;2024-02-21T05:42:17;16.30;;;9.73;;
7657;SDS011;8462;53.156;8.220;2024-02-21T05:44:44;15.07;;;9.60;;
7657;SDS011;8462;53.156;8.220;2024-02-21T05:47:13;14.90;;;9.43;;
7657;SDS011;8462;53.156;8.220;2024-02-21T05:49:41;11.47;;;8.93;;
7657;SDS011;8462;53.156;8.220;2024-02-21T05:52:10;13.60;;;9.37;;
7657;SDS011;8462;53.156;8.220;2024-02-21T05:54:38;14.23;;;8.93;;
7657;SDS011;8462;53.156;8.220;2024-02-21T05:57:07;13.37;;;8.97;;
7657;SDS011;8462;53.156;8.220;2024-02-21T05:59:37;12.37;;;8.57;;
7657;SDS011;8462;53.156;8.220;2024-02-21T06:02:07;13.47;;;9.23;;
7657;SDS011;8462;53.156;8.220;2024-02-21T06:04:35;12.83;;;9.13;;
7657;SDS011;8462;53.156;8.220;2024-02-21T06:07:12;11.03;;;8.30;;
7657;SDS011;8462;53.156;8.220;2024-02-21T06:09:41;15.13;;;9.00;;
7657;SDS011;8462;53.156;8.220;2024-02-21T06:12:10;13.33;;;8.70;;
7657;SDS011;8462;53.156;8.220;2024-02-21T06:14:38;14.53;;;9.37;;
7657;SDS011;8462;53.156;8.220;2024-02-21T06:17:06;12.07;;;8.77;;
7657;SDS011;8462;53.156;8.220;2024-02-21T06:19:34;13.03;;;9.47;;
7657;SDS011;8462;53.156;8.220;2024-02-21T06:22:02;16.00;;;9.47;;
7657;SDS011;8462;53.156;8.220;2024-02-21T06:24:36;17.50;;;10.33;;
7657;SDS011;8462;53.156;8.220;2024-02-21T06:27:04;14.70;;;9.60;;
7657;SDS011;8462;53.156;8.220;2024-02-21T06:29:33;15.27;;;9.63;;
7657;SDS011;8462;53.156;8.220;2024-02-21T06:32:06;15.13;;;9.63;;
7657;SDS011;8462;53.156;8.220;2024-02-21T06:34:35;12.70;;;9.43;;
7657;SDS011;8462;53.156;8.220;2024-02-21T06:37:03;15.83;;;10.00;;
7657;SDS011;8462;53.156;8.220;2024-02-21T06:39:32;14.63;;;10.13;;
7657;SDS011;8462;53.156;8.220;2024-02-21T06:42:00;18.17;;;10.93;;
7657;SDS011;8462;53.156;8.220;2024-02-21T06:44:29;16.10;;;11.13;;
7657;SDS011;8462;53.156;8.220;2024-02-21T06:46:58;17.73;;;11.30;;
7657;SDS011;8462;53.156;8.220;2024-02-21T06:49:26;18.67;;;11.17;;
7657;SDS011;8462;53.156;8.220;2024-02-21T06:51:53;19.50;;;12.23;;
7657;SDS011;8462;53.156;8.220;2024-02-21T06:54:24;19.77;;;10.77;;
7657;SDS011;8462;53.156;8.220;2024-02-21T06:56:52;21.13;;;11.17;;
7657;SDS011;8462;53.156;8.220;2024-02-21T06:59:22;18.83;;;11.37;;
7657;SDS011;8462;53.156;8.220;2024-02-21T07:01:53;16.63;;;11.87;;
7657;SDS011;8462;53.156;8.220;2024-02-21T07:04:21;18.50;;;11.17;;
7657;SDS011;8462;53.156;8.220;2024-02-21T07:06:48;18.53;;;12.10;;
7657;SDS011;8462;53.156;8.220;2024-02-21T07:09:17;18.47;;;12.10;;
7657;SDS011;8462;53.156;8.220;2024-02-21T07:11:44;22.10;;;13.33;;
7657;SDS011;8462;53.156;8.220;2024-02-21T07:14:13;22.30;;;13.50;;
7657;SDS011;8462;53.156;8.220;2024-02-21T07:16:43;26.73;;;13.90;;
7657;SDS011;8462;53.156;8.220;2024-02-21T07:19:12;20.67;;;13.80;;
7657;SDS011;8462;53.156;8.220;2024-02-21T07:21:39;24.10;;;13.67;;
7657;SDS011;8462;53.156;8.220;2024-02-21T07:24:07;25.53;;;14.40;;
7657;SDS011;8462;53.156;8.220;2024-02-21T07:26:35;22.53;;;12.90;;
7657;SDS011;8462;53.156;8.220;2024-02-21T07:29:03;22.20;;;13.50;;
7657;SDS011;8462;53.156;8.220;2024-02-21T07:31:38;22.87;;;14.53;;
7657;SDS011;8462;53.156;8.220;2024-02-21T07:34:10;28.77;;;14.67;;
7657;SDS011;8462;53.156;8.220;2024-02-21T07:36:40;29.30;;;15.57;;
7657;SDS011;8462;53.156;8.220;2024-02-21T07:39:09;29.57;;;16.33;;
7657;SDS011;8462;53.156;8.220;2024-02-21T07:41:37;28.30;;;15.80;;
7657;SDS011;8462;53.156;8.220;2024-02-21T07:44:06;27.73;;;16.33;;
7657;SDS011;8462;53.156;8.220;2024-02-21T07:46:33;31.23;;;17.07;;
7657;SDS011;8462;53.156;8.220;2024-02-21T07:49:07;34.53;;;17.63;;
7657;SDS011;8462;53.156;8.220;2024-02-21T07:51:37;36.40;;;16.83;;
7657;SDS011;8462;53.156;8.220;2024-02-21T07:54:08;24.90;;;15.37;;
7657;SDS011;8462;53.156;8.220;2024-02-21T07:56:35;27.90;;;17.10;;
7657;SDS011;8462;53.156;8.220;2024-02-21T07:59:03;32.20;;;15.80;;
7657;SDS011;8462;53.156;8.220;2024-02-21T08:01:32;26.53;;;15.20;;
7657;SDS011;8462;53.156;8.220;2024-02-21T08:04:00;29.60;;;15.57;;
7657;SDS011;8462;53.156;8.220;2024-02-21T08:06:30;27.40;;;15.47;;
7657;SDS011;8462;53.156;8.220;2024-02-21T08:09:01;30.03;;;15.17;;
7657;SDS011;8462;53.156;8.220;2024-02-21T08:11:31;23.63;;;15.93;;
7657;SDS011;8462;53.156;8.220;2024-02-21T08:13:59;23.50;;;13.93;;
7657;SDS011;8462;53.156;8.220;2024-02-21T08:16:29;24.70;;;15.20;;
7657;SDS011;8462;53.156;8.220;2024-02-21T08:19:00;29.73;;;15.70;;
7657;SDS011;8462;53.156;8.220;2024-02-21T08:21:35;25.17;;;15.77;;
7657;SDS011;8462;53.156;8.220;2024-02-21T08:24:04;24.43;;;16.03;;
7657;SDS011;8462;53.156;8.220;2024-02-21T08:26:32;26.50;;;16.07;;
7657;SDS011;8462;53.156;8.220;2024-02-21T08:29:02;28.50;;;15.73;;
7657;SDS011;8462;53.156;8.220;2024-02-21T08:31:29;24.57;;;15.00;;
7657;SDS011;8462;53.156;8.220;2024-02-21T08:34:01;25.90;;;15.70;;
7657;SDS011;8462;53.156;8.220;2024-02-21T08:36:32;25.93;;;15.03;;
7657;SDS011;8462;53.156;8.220;2024-02-21T08:39:03;27.17;;;15.03;;
7657;SDS011;8462;53.156;8.220;2024-02-21T08:41:33;26.10;;;14.73;;
7657;SDS011;8462;53.156;8.220;2024-02-21T08:44:02;26.47;;;15.17;;
7657;SDS011;8462;53.156;8.220;2024-02-21T08:46:33;24.53;;;13.00;;
7657;SDS011;8462;53.156;8.220;2024-02-21T08:49:04;27.50;;;14.47;;
7657;SDS011;8462;53.156;8.220;2024-02-21T08:51:32;20.57;;;13.67;;
7657;SDS011;8462;53.156;8.220;2024-02-21T08:54:02;27.60;;;15.10;;
7657;SDS011;8462;53.156;8.220;2024-02-21T08:56:36;24.20;;;14.20;;
7657;SDS011;8462;53.156;8.220;2024-02-21T08:59:05;25.73;;;14.13;;
7657;SDS011;8462;53.156;8.220;2024-02-21T09:01:34;22.50;;;13.33;;
7657;SDS011;8462;53.156;8.220;2024-02-21T09:04:03;22.10;;;13.23;;
7657;SDS011;8462;53.156;8.220;2024-02-21T09:06:32;23.23;;;13.70;;
7657;SDS011;8462;53.156;8.220;2024-02-21T09:09:05;22.37;;;13.07;;
7657;SDS011;8462;53.156;8.220;2024-02-21T09:11:34;22.90;;;14.10;;
7657;SDS011;8462;53.156;8.220;2024-02-21T09:14:02;20.60;;;13.63;;
7657;SDS011;8462;53.156;8.220;2024-02-21T09:16:30;27.67;;;15.03;;
7657;SDS011;8462;53.156;8.220;2024-02-21T09:18:59;21.70;;;13.60;;
7657;SDS011;8462;53.156;8.220;2024-02-21T09:21:29;20.83;;;12.90;;
7657;SDS011;8462;53.156;8.220;2024-02-21T09:23:56;21.33;;;13.27;;
7657;SDS011;8462;53.156;8.220;2024-02-21T09:26:30;23.47;;;14.50;;
7657;SDS011;8462;53.156;8.220;2024-02-21T09:28:57;26.97;;;13.63;;
7657;SDS011;8462;53.156;8.220;2024-02-21T09:31:26;25.07;;;15.00;;
7657;SDS011;8462;53.156;8.220;2024-02-21T09:33:54;20.13;;;14.43;;
7657;SDS011;8462;53.156;8.220;2024-02-21T09:36:22;26.23;;;16.57;;
7657;SDS011;8462;53.156;8.220;2024-02-21T09:38:51;21.83;;;15.67;;
7657;SDS011;8462;53.156;8.220;2024-02-21T09:41:22;32.43;;;16.13;;
7657;SDS011;8462;53.156;8.220;2024-02-21T09:43:54;28.50;;;16.23;;
7657;SDS011;8462;53.156;8.220;2024-02-21T09:46:24;21.23;;;16.30;;
7657;SDS011;8462;53.156;8.220;2024-02-21T09:49:04;23.23;;;16.23;;
7657;SDS011;8462;53.156;8.220;2024-02-21T09:51:48;19.10;;;14.97;;
7657;SDS011;8462;53.156;8.220;2024-02-21T09:54:17;23.43;;;15.70;;
7657;SDS011;8462;53.156;8.220;2024-02-21T09:56:47;22.83;;;16.40;;
7657;SDS011;8462;53.156;8.220;2024-02-21T09:59:17;27.83;;;16.00;;
7657;SDS011;8462;53.156;8.220;2024-02-21T10:01:45;26.53;;;16.13;;
7657;SDS011;8462;53.156;8.220;2024-02-21T10:04:14;23.40;;;15.07;;
7657;SDS011;8462;53.156;8.220;2024-02-21T10:06:43;25.87;;;15.63;;
7657;SDS011;8462;53.156;8.220;2024-02-21T10:09:19;21.50;;;14.90;;
7657;SDS011;8462;53.156;8.220;2024-02-21T10:11:49;26.33;;;14.87;;
7657;SDS011;8462;53.156;8.220;2024-02-21T10:14:21;25.53;;;15.03;;
7657;SDS011;8462;53.156;8.220;2024-02-21T10:16:56;20.57;;;13.93;;
7657;SDS011;8462;53.156;8.220;2024-02-21T10:19:25;22.93;;;14.53;;
7657;SDS011;8462;53.156;8.220;2024-02-21T10:22:00;22.23;;;14.27;;
7657;SDS011;8462;53.156;8.220;2024-02-21T10:24:30;22.00;;;13.73;;
7657;SDS011;8462;53.156;8.220;2024-02-21T10:27:05;22.77;;;13.73;;
7657;SDS011;8462;53.156;8.220;2024-02-21T10:29:37;21.30;;;13.77;;
7657;SDS011;8462;53.156;8.220;2024-02-21T10:32:08;20.23;;;13.60;;
7657;SDS011;8462;53.156;8.220;2024-02-21T10:34:37;21.43;;;13.67;;
7657;SDS011;8462;53.156;8.220;2024-02-21T10:37:08;22.17;;;13.63;;
7657;SDS011;8462;53.156;8.220;2024-02-21T10:39:38;22.90;;;13.77;;
7657;SDS011;8462;53.156;8.220;2024-02-21T10:42:07;18.83;;;13.13;;
7657;SDS011;8462;53.156;8.220;2024-02-21T10:44:39;18.90;;;13.73;;
7657;SDS011;8462;53.156;8.220;2024-02-21T10:47:07;21.20;;;13.17;;
7657;SDS011;8462;53.156;8.220;2024-02-21T10:49:36;18.37;;;12.27;;
7657;SDS011;8462;53.156;8.220;2024-02-21T10:52:09;21.97;;;13.47;;
7657;SDS011;8462;53.156;8.220;2024-02-21T10:54:44;16.67;;;12.73;;
7657;SDS011;8462;53.156;8.220;2024-02-21T10:57:17;17.77;;;12.20;;
7657;SDS011;8462;53.156;8.220;2024-02-21T10:59:51;17.63;;;12.23;;
7657;SDS011;8462;53.156;8.220;2024-02-21T11:02:19;16.27;;;12.33;;
7657;SDS011;8462;53.156;8.220;2024-02-21T11:04:48;15.63;;;12.27;;
7657;SDS011;8462;53.156;8.220;2024-02-21T11:07:17;16.80;;;11.97;;
7657;SDS011;8462;53.156;8.220;2024-02-21T11:09:51;16.93;;;11.07;;
7657;SDS011;8462;53.156;8.220;2024-02-21T11:12:27;20.43;;;12.80;;
7657;SDS011;8462;53.156;8.220;2024-02-21T11:15:04;16.40;;;11.07;;
7657;SDS011;8462;53.156;8.220;2024-02-21T11:17:34;21.00;;;12.17;;
7657;SDS011;8462;53.156;8.220;2024-02-21T11:20:12;15.47;;;11.53;;
7657;SDS011;8462;53.156;8.220;2024-02-21T11:22:41;18.80;;;13.03;;
7657;SDS011;8462;53.156;8.220;2024-02-21T11:25:09;17.07;;;11.37;;
7657;SDS011;8462;53.156;8.220;2024-02-21T11:27:38;18.27;;;11.80;;
7657;SDS011;8462;53.156;8.220;2024-02-21T11:30:14;14.30;;;11.20;;
7657;SDS011;8462;53.156;8.220;2024-02-21T11:32:43;16.23;;;10.77;;
7657;SDS011;8462;53.156;8.220;2024-02-21T11:35:19;19.63;;;12.57;;
7657;SDS011;8462;53.156;8.220;2024-02-21T11:37:48;13.77;;;9.67;;
7657;SDS011;8462;53.156;8.220;2024-02-21T11:40:16;15.60;;;10.73;;
7657;SDS011;8462;53.156;8.220;2024-02-21T11:42:47;15.43;;;9.93;;
7657;SDS011;8462;53.156;8.220;2024-02-21T11:45:15;14.90;;;10.73;;
7657;SDS011;8462;53.156;8.220;2024-02-21T11:47:47;15.83;;;10.33;;
7657;SDS011;8462;53.156;8.220;2024-02-21T11:50:16;14.83;;;10.30;;
7657;SDS011;8462;53.156;8.220;2024-02-21T11:52:47;14.83;;;9.50;;
7657;SDS011;8462;53.156;8.220;2024-02-21T11:55:16;14.23;;;9.47;;
7657;SDS011;8462;53.156;8.220;2024-02-21T11:57:44;15.80;;;9.70;;
7657;SDS011;8462;53.156;8.220;2024-02-21T12:00:12;15.23;;;9.83;;
7657;SDS011;8462;53.156;8.220;2024-02-21T12:02:42;13.23;;;8.73;;
7657;SDS011;8462;53.156;8.220;2024-02-21T12:05:10;12.83;;;9.43;;
7657;SDS011;8462;53.156;8.220;2024-02-21T12:07:38;16.27;;;8.47;;
7657;SDS011;8462;53.156;8.220;2024-02-21T12:10:07;15.43;;;9.00;;
7657;SDS011;8462;53.156;8.220;2024-02-21T12:12:37;12.37;;;7.73;;
7657;SDS011;8462;53.156;8.220;2024-02-21T12:15:05;14.47;;;7.47;;
7657;SDS011;8462;53.156;8.220;2024-02-21T12:17:36;12.97;;;8.00;;
7657;SDS011;8462;53.156;8.220;2024-02-21T12:20:06;13.93;;;7.43;;
7657;SDS011;8462;53.156;8.220;2024-02-21T12:22:36;11.83;;;7.57;;
7657;SDS011;8462;53.156;8.220;2024-02-21T12:25:07;12.43;;;8.10;;
7657;SDS011;8462;53.156;8.220;2024-02-21T12:27:50;9.73;;;6.83;;
7657;SDS011;8462;53.156;8.220;2024-02-21T12:30:18;13.97;;;7.63;;
7657;SDS011;8462;53.156;8.220;2024-02-21T12:32:48;12.97;;;6.67;;
7657;SDS011;8462;53.156;8.220;2024-02-21T12:35:17;11.37;;;6.60;;
7657;SDS011;8462;53.156;8.220;2024-02-21T12:37:45;10.13;;;7.17;;
7657;SDS011;8462;53.156;8.220;2024-02-21T12:40:15;10.67;;;7.20;;
7657;SDS011;8462;53.156;8.220;2024-02-21T12:42:43;9.10;;;5.97;;
7657;SDS011;8462;53.156;8.220;2024-02-21T12:45:12;10.83;;;6.70;;
7657;SDS011;8462;53.156;8.220;2024-02-21T12:47:40;7.97;;;5.53;;
7657;SDS011;8462;53.156;8.220;2024-02-21T12:50:11;9.73;;;5.77;;
7657;SDS011;8462;53.156;8.220;2024-02-21T12:52:39;10.43;;;5.63;;
7657;SDS011;8462;53.156;8.220;2024-02-21T12:55:08;10.80;;;5.93;;
7657;SDS011;8462;53.156;8.220;2024-02-21T12:57:37;8.33;;;5.43;;
7657;SDS011;8462;53.156;8.220;2024-02-21T13:00:06;9.10;;;5.40;;
7657;SDS011;8462;53.156;8.220;2024-02-21T13:02:36;7.80;;;5.90;;
7657;SDS011;8462;53.156;8.220;2024-02-21T13:05:05;7.90;;;5.73;;
7657;SDS011;8462;53.156;8.220;2024-02-21T13:07:33;11.37;;;5.53;;
7657;SDS011;8462;53.156;8.220;2024-02-21T13:10:03;6.40;;;5.13;;
7657;SDS011;8462;53.156;8.220;2024-02-21T13:12:31;10.13;;;5.27;;
7657;SDS011;8462;53.156;8.220;2024-02-21T13:15:00;7.83;;;5.57;;
7657;SDS011;8462;53.156;8.220;2024-02-21T13:17:30;8.77;;;5.63;;
7657;SDS011;8462;53.156;8.220;2024-02-21T13:20:04;8.80;;;5.97;;
7657;SDS011;8462;53.156;8.220;2024-02-21T13:22:34;9.23;;;5.70;;
7657;SDS011;8462;53.156;8.220;2024-02-21T13:25:05;9.50;;;5.97;;
7657;SDS011;8462;53.156;8.220;2024-02-21T13:27:36;10.63;;;6.27;;
7657;SDS011;8462;53.156;8.220;2024-02-21T13:30:04;9.23;;;6.37;;
7657;SDS011;8462;53.156;8.220;2024-02-21T13:32:37;8.37;;;5.17;;
7657;SDS011;8462;53.156;8.220;2024-02-21T13:35:05;7.23;;;5.37;;
7657;SDS011;8462;53.156;8.220;2024-02-21T13:37:34;8.63;;;5.63;;
7657;SDS011;8462;53.156;8.220;2024-02-21T13:40:05;6.43;;;5.20;;
7657;SDS011;8462;53.156;8.220;2024-02-21T13:42:35;13.13;;;6.37;;
7657;SDS011;8462;53.156;8.220;2024-02-21T13:45:04;8.50;;;5.60;;
7657;SDS011;8462;53.156;8.220;2024-02-21T13:47:32;8.00;;;6.03;;
7657;SDS011;8462;53.156;8.220;2024-02-21T13:50:00;6.20;;;5.20;;
7657;SDS011;8462;53.156;8.220;2024-02-21T13:52:29;6.07;;;5.20;;
7657;SDS011;8462;53.156;8.220;2024-02-21T13:54:58;9.20;;;5.20;;
7657;SDS011;8462;53.156;8.220;2024-02-21T13:57:28;9.80;;;5.23;;
7657;SDS011;8462;53.156;8.220;2024-02-21T13:59:56;8.43;;;6.83;;
7657;SDS011;8462;53.156;8.220;2024-02-21T14:02:26;7.03;;;4.80;;
7657;SDS011;8462;53.156;8.220;2024-02-21T14:04:55;6.50;;;4.77;;
7657;SDS011;8462;53.156;8.220;2024-02-21T14:07:24;6.40;;;5.07;;
7657;SDS011;8462;53.156;8.220;2024-02-21T14:09:51;12.23;;;5.60;;
7657;SDS011;8462;53.156;8.220;2024-02-21T14:12:19;9.37;;;5.50;;
7657;SDS011;8462;53.156;8.220;2024-02-21T14:14:48;6.97;;;5.47;;
7657;SDS011;8462;53.156;8.220;2024-02-21T14:17:18;10.97;;;7.50;;
7657;SDS011;8462;53.156;8.220;2024-02-21T14:19:48;8.87;;;6.70;;
7657;SDS011;8462;53.156;8.220;2024-02-21T14:22:16;7.90;;;7.10;;
7657;SDS011;8462;53.156;8.220;2024-02-21T14:24:45;12.13;;;9.03;;
7657;SDS011;8462;53.156;8.220;2024-02-21T14:27:15;14.37;;;9.60;;
7657;SDS011;8462;53.156;8.220;2024-02-21T14:29:43;10.70;;;8.83;;
7657;SDS011;8462;53.156;8.220;2024-02-21T14:32:14;10.63;;;8.87;;
7657;SDS011;8462;53.156;8.220;2024-02-21T14:34:42;12.23;;;9.70;;
7657;SDS011;8462;53.156;8.220;2024-02-21T14:37:09;13.03;;;10.10;;
7657;SDS011;8462;53.156;8.220;2024-02-21T14:39:38;12.80;;;9.50;;
7657;SDS011;8462;53.156;8.220;2024-02-21T14:42:07;11.13;;;9.93;;
7657;SDS011;8462;53.156;8.220;2024-02-21T14:44:36;12.97;;;10.10;;
7657;SDS011;8462;53.156;8.220;2024-02-21T14:47:04;11.47;;;9.37;;
7657;SDS011;8462;53.156;8.220;2024-02-21T14:49:34;10.83;;;9.70;;
7657;SDS011;8462;53.156;8.220;2024-02-21T14:52:02;10.07;;;9.00;;
7657;SDS011;8462;53.156;8.220;2024-02-21T14:54:30;10.23;;;8.20;;
7657;SDS011;8462;53.156;8.220;2024-02-21T14:56:59;9.00;;;8.07;;
7657;SDS011;8462;53.156;8.220;2024-02-21T14:59:27;10.87;;;8.10;;
7657;SDS011;8462;53.156;8.220;2024-02-21T15:01:55;10.30;;;8.60;;
7657;SDS011;8462;53.156;8.220;2024-02-21T15:04:23;9.97;;;8.90;;
7657;SDS011;8462;53.156;8.220;2024-02-21T15:06:56;14.23;;;10.37;;